Time;durP1;ratioP1;P1;durP2;ratioP2;P2;SDS_P1;SDS_P2;PMS_P1;PMS_P2;Temp;Humidity;BMP_temperature;BMP_pressure;BME280_temperature;BME280_humidity;BME280_pressure;Samples;Min_cycle;Max_cycle;Signal;HPM_P1;HPM_P2
2023/09/06 00:00:43;;;;;;;1.10;1.02;;;18.10;99.90;;;;;;5094165;28;20176;-63
2023/09/06 00:03:09;;;;;;;1.67;1.58;;;18.70;99.90;;;;;;5093753;28;20495;-63
2023/09/06 00:05:36;;;;;;;2.33;1.27;;;18.00;99.90;;;;;;5093992;28;20496;-62
2023/09/06 00:08:03;;;;;;;1.42;1.33;;;18.10;99.90;;;;;;5093285;28;20062;-63
2023/09/06 00:10:28;;;;;;;0.95;0.95;;;18.10;99.90;;;;;;5093906;28;20181;-64
2023/09/06 00:12:54;;;;;;;2.08;1.05;;;18.00;99.90;;;;;;5094109;28;20508;-63
2023/09/06 00:15:20;;;;;;;1.88;1.77;;;17.80;99.90;;;;;;5092752;28;20055;-63
2023/09/06 00:17:45;;;;;;;1.42;1.33;;;18.10;99.90;;;;;;5093875;28;20058;-63
2023/09/06 00:20:19;;;;;;;1.20;1.10;;;18.20;99.90;;;;;;5093465;28;20047;-63
2023/09/06 00:22:53;;;;;;;1.63;1.52;;;17.90;99.90;;;;;;5093846;28;20063;-63
2023/09/06 00:25:18;;;;;;;1.27;1.10;;;17.80;99.90;;;;;;5093639;28;20090;-63
2023/09/06 00:27:44;;;;;;;3.47;2.00;;;17.90;99.90;;;;;;5093647;28;20137;-64
2023/09/06 00:30:10;;;;;;;1.30;1.20;;;18.10;99.90;;;;;;5093506;28;20051;-63
2023/09/06 00:32:36;;;;;;;3.17;1.95;;;17.60;99.90;;;;;;5093465;28;20055;-63
2023/09/06 00:35:01;;;;;;;2.67;1.35;;;18.40;99.90;;;;;;5093457;28;20425;-63
2023/09/06 00:37:35;;;;;;;2.83;1.52;;;17.70;99.90;;;;;;5093430;28;20067;-63
2023/09/06 00:40:08;;;;;;;2.15;1.35;;;17.90;99.90;;;;;;5093322;28;20056;-64
2023/09/06 00:42:34;;;;;;;1.60;1.50;;;17.70;99.90;;;;;;5093401;28;20044;-63
2023/09/06 00:45:00;;;;;;;2.10;1.88;;;17.90;99.90;;;;;;5093531;28;20511;-63
2023/09/06 00:47:26;;;;;;;1.45;1.17;;;17.60;99.90;;;;;;5093260;28;20040;-63
2023/09/06 00:49:51;;;;;;;1.67;1.58;;;17.50;99.90;;;;;;5092963;28;20052;-63
2023/09/06 00:52:17;;;;;;;1.52;1.10;;;17.50;99.90;;;;;;5093369;28;20056;-63
2023/09/06 00:54:43;;;;;;;1.30;1.20;;;17.50;99.90;;;;;;5093178;28;20076;-63
2023/09/06 00:57:09;;;;;;;2.60;2.00;;;17.80;99.90;;;;;;5093653;28;20040;-63
2023/09/06 00:59:36;;;;;;;3.83;2.28;;;17.50;99.90;;;;;;5093168;28;20044;-62
2023/09/06 01:02:02;;;;;;;1.42;1.33;;;17.80;99.90;;;;;;5091788;28;20095;-63
2023/09/06 01:04:27;;;;;;;1.15;1.05;;;17.70;99.90;;;;;;5092743;28;20128;-64
2023/09/06 01:06:58;;;;;;;2.08;1.85;;;17.70;99.90;;;;;;5092916;28;20044;-62
2023/09/06 01:09:24;;;;;;;2.45;2.25;;;17.60;99.90;;;;;;5092939;28;20044;-62
2023/09/06 01:11:49;;;;;;;5.20;1.63;;;17.70;99.90;;;;;;5092868;28;20066;-63
2023/09/06 01:14:15;;;;;;;1.17;1.08;;;17.90;99.90;;;;;;5092703;28;20097;-62
2023/09/06 01:16:49;;;;;;;0.88;0.80;;;17.50;99.90;;;;;;5092956;28;20400;-63
2023/09/06 01:19:16;;;;;;;1.63;0.98;;;17.90;99.90;;;;;;5092511;28;20048;-62
2023/09/06 01:21:49;;;;;;;1.20;1.05;;;18.10;99.90;;;;;;5091853;28;20056;-63
2023/09/06 01:24:16;;;;;;;1.85;1.55;;;17.30;99.90;;;;;;5092543;28;20047;-62
2023/09/06 01:26:42;;;;;;;1.50;1.27;;;17.50;99.90;;;;;;5092554;28;20048;-63
2023/09/06 01:29:08;;;;;;;1.50;1.40;;;17.40;99.90;;;;;;5092442;28;20140;-63
2023/09/06 01:31:34;;;;;;;2.20;1.13;;;17.60;99.90;;;;;;5092386;28;20055;-62
2023/09/06 01:34:00;;;;;;;0.43;0.43;;;17.10;99.90;;;;;;5092367;28;20036;-62
2023/09/06 01:36:26;;;;;;;1.60;1.15;;;17.50;99.90;;;;;;5092299;28;20400;-62
2023/09/06 01:38:51;;;;;;;1.38;1.27;;;17.40;99.90;;;;;;5092273;28;20051;-63
2023/09/06 01:41:17;;;;;;;3.28;1.88;;;17.40;99.90;;;;;;5092247;28;20054;-63
2023/09/06 01:43:43;;;;;;;0.57;0.57;;;17.60;99.90;;;;;;5092166;28;20083;-64
2023/09/06 01:46:08;;;;;;;1.13;1.10;;;17.50;99.90;;;;;;5092134;28;20123;-62
2023/09/06 01:48:36;;;;;;;0.98;0.98;;;17.60;99.90;;;;;;5092170;28;20052;-62
2023/09/06 01:51:04;;;;;;;1.48;1.27;;;17.20;99.90;;;;;;5090818;28;20087;-62
2023/09/06 01:53:30;;;;;;;0.90;0.90;;;17.40;99.90;;;;;;5092066;28;20048;-62
2023/09/06 01:55:56;;;;;;;2.30;1.15;;;17.40;99.90;;;;;;5092039;28;20105;-63
2023/09/06 01:58:21;;;;;;;0.50;0.50;;;17.60;99.90;;;;;;5092264;28;20048;-62
2023/09/06 02:00:47;;;;;;;3.15;1.65;;;17.30;99.90;;;;;;5092043;28;20052;-62
2023/09/06 02:03:15;;;;;;;1.67;1.00;;;17.60;99.90;;;;;;5091895;28;20047;-62
2023/09/06 02:05:41;;;;;;;1.10;1.00;;;17.80;99.90;;;;;;5091894;28;20114;-62
2023/09/06 02:08:07;;;;;;;1.77;1.08;;;17.20;99.90;;;;;;5091871;28;20135;-62
2023/09/06 02:10:33;;;;;;;1.27;1.17;;;17.40;99.90;;;;;;5091913;28;20083;-62
2023/09/06 02:12:59;;;;;;;0.95;0.95;;;17.00;99.90;;;;;;5091876;28;20530;-62
2023/09/06 02:15:26;;;;;;;1.15;1.05;;;17.70;99.90;;;;;;5091924;28;20384;-63
2023/09/06 02:17:52;;;;;;;1.10;1.00;;;17.30;99.90;;;;;;5092166;28;20052;-62
2023/09/06 02:20:19;;;;;;;4.85;1.40;;;17.40;99.90;;;;;;5091939;28;20117;-62
2023/09/06 02:22:47;;;;;;;0.88;0.77;;;17.30;99.90;;;;;;5091771;28;20048;-62
2023/09/06 02:25:13;;;;;;;2.63;1.17;;;17.70;99.90;;;;;;5091635;28;20048;-62
2023/09/06 02:27:40;;;;;;;2.58;1.58;;;17.80;99.90;;;;;;5091775;28;20126;-64
2023/09/06 02:30:06;;;;;;;0.77;0.75;;;17.50;99.90;;;;;;5091605;28;20044;-62
2023/09/06 02:32:33;;;;;;;3.50;1.77;;;17.70;99.90;;;;;;5092976;28;20040;-62
2023/09/06 02:35:00;;;;;;;1.23;1.05;;;17.50;99.90;;;;;;5095862;28;20048;-63
2023/09/06 02:37:26;;;;;;;1.13;0.88;;;17.40;99.90;;;;;;5096038;28;20051;-62
2023/09/06 02:39:55;;;;;;;1.40;1.30;;;17.80;99.90;;;;;;5095691;28;20043;-62
2023/09/06 02:42:21;;;;;;;2.47;1.50;;;17.60;99.90;;;;;;5095612;28;20112;-62
2023/09/06 02:44:47;;;;;;;1.05;0.93;;;17.60;99.90;;;;;;5095600;28;20455;-62
2023/09/06 02:47:15;;;;;;;1.73;0.93;;;17.50;99.90;;;;;;5094422;28;20127;-62
2023/09/06 02:49:51;;;;;;;1.77;0.70;;;17.20;99.90;;;;;;5095708;28;20040;-64
2023/09/06 02:52:29;;;;;;;3.58;1.58;;;17.50;99.90;;;;;;5095686;28;20055;-62
2023/09/06 02:54:57;;;;;;;1.55;0.65;;;17.30;99.90;;;;;;5095576;28;20485;-62
2023/09/06 02:57:25;;;;;;;2.00;1.80;;;17.20;99.90;;;;;;5095407;28;20048;-62
2023/09/06 02:59:51;;;;;;;0.55;0.50;;;17.50;99.90;;;;;;5095400;28;20047;-62
2023/09/06 03:02:22;;;;;;;0.60;0.60;;;17.70;99.90;;;;;;5095306;28;20108;-62
2023/09/06 03:05:03;;;;;;;1.02;0.75;;;17.30;99.90;;;;;;5094945;28;20095;-62
2023/09/06 03:07:33;;;;;;;0.73;0.73;;;17.60;99.90;;;;;;5095278;28;20118;-63
2023/09/06 03:09:58;;;;;;;0.55;0.55;;;17.30;99.90;;;;;;5095262;28;20087;-63
2023/09/06 03:12:24;;;;;;;0.80;0.80;;;17.40;99.90;;;;;;5095120;28;20098;-63
2023/09/06 03:14:51;;;;;;;1.75;1.55;;;16.80;99.90;;;;;;5093815;28;20445;-63
2023/09/06 03:17:22;;;;;;;1.50;1.40;;;17.10;99.90;;;;;;5095012;28;20553;-62
2023/09/06 03:19:56;;;;;;;0.60;0.60;;;17.10;99.90;;;;;;5094969;28;20051;-62
2023/09/06 03:22:23;;;;;;;1.08;1.00;;;17.40;99.90;;;;;;5094655;28;20483;-63
2023/09/06 03:24:55;;;;;;;0.95;0.95;;;17.30;99.90;;;;;;5094828;28;20372;-62
2023/09/06 03:27:21;;;;;;;0.93;0.50;;;17.10;99.90;;;;;;5094898;28;20055;-64
2023/09/06 03:29:51;;;;;;;1.13;1.13;;;17.40;99.90;;;;;;5094829;28;20044;-64
2023/09/06 03:32:17;;;;;;;2.38;1.98;;;17.10;99.90;;;;;;5093516;28;20051;-63
2023/09/06 03:34:45;;;;;;;0.80;0.80;;;17.20;99.90;;;;;;5094768;28;20055;-62
2023/09/06 03:37:11;;;;;;;0.73;0.73;;;17.40;99.90;;;;;;5094938;28;20043;-62
2023/09/06 03:39:41;;;;;;;0.90;0.60;;;17.40;99.90;;;;;;5094896;28;20048;-62
2023/09/06 03:42:14;;;;;;;0.55;0.55;;;17.30;99.90;;;;;;5094728;28;20067;-62
2023/09/06 03:44:42;;;;;;;1.30;1.20;;;17.00;99.90;;;;;;5093335;28;20040;-63
2023/09/06 03:47:13;;;;;;;0.55;0.52;;;17.30;99.90;;;;;;5093453;28;20113;-62
2023/09/06 03:49:40;;;;;;;1.23;0.70;;;16.90;99.90;;;;;;5094429;28;20048;-62
2023/09/06 03:52:06;;;;;;;0.43;0.43;;;17.00;99.90;;;;;;5094328;28;20040;-62
2023/09/06 03:54:34;;;;;;;1.13;0.90;;;17.20;99.90;;;;;;5094203;28;20044;-62
2023/09/06 03:57:07;;;;;;;0.47;0.47;;;17.20;99.90;;;;;;5094208;28;20054;-62
2023/09/06 03:59:35;;;;;;;0.90;0.65;;;17.10;99.90;;;;;;5093113;28;20095;-63
2023/09/06 04:02:13;;;;;;;0.68;0.68;;;16.90;99.90;;;;;;5094157;28;20396;-62
2023/09/06 04:04:38;;;;;;;0.65;0.65;;;17.10;99.90;;;;;;5093965;28;20127;-62
2023/09/06 04:07:07;;;;;;;0.82;0.82;;;17.00;99.90;;;;;;5094115;28;20122;-63
2023/09/06 04:09:37;;;;;;;0.50;0.50;;;16.60;99.90;;;;;;5093975;28;20059;-62
2023/09/06 04:12:03;;;;;;;0.85;0.85;;;16.80;99.90;;;;;;5093900;28;20135;-62
2023/09/06 04:14:29;;;;;;;0.63;0.63;;;16.70;99.90;;;;;;5093836;28;20039;-62
2023/09/06 04:16:55;;;;;;;3.30;1.30;;;16.80;99.90;;;;;;5093914;28;20052;-63
2023/09/06 04:19:21;;;;;;;0.68;0.68;;;16.70;99.90;;;;;;5093738;28;20071;-62
2023/09/06 04:21:47;;;;;;;1.20;1.10;;;17.00;99.90;;;;;;5093990;28;20089;-62
2023/09/06 04:24:14;;;;;;;0.50;0.50;;;16.90;99.90;;;;;;5093572;28;20407;-62
2023/09/06 04:26:39;;;;;;;0.82;0.82;;;16.80;99.90;;;;;;5092578;28;20133;-63
2023/09/06 04:29:06;;;;;;;0.60;0.60;;;17.30;99.90;;;;;;5093621;28;20051;-63
2023/09/06 04:31:32;;;;;;;2.20;1.52;;;17.00;99.90;;;;;;5093526;28;20051;-62
2023/09/06 04:33:58;;;;;;;0.88;0.85;;;16.70;99.90;;;;;;5093532;28;20044;-62
2023/09/06 04:36:24;;;;;;;0.75;0.75;;;17.10;99.90;;;;;;5093425;28;20040;-62
2023/09/06 04:38:50;;;;;;;0.10;0.10;;;16.50;99.90;;;;;;5093131;28;20055;-62
2023/09/06 04:41:15;;;;;;;0.63;0.63;;;16.90;99.90;;;;;;5093379;28;20044;-62
2023/09/06 04:43:41;;;;;;;1.13;1.02;;;16.60;99.90;;;;;;5092348;28;20430;-62
2023/09/06 04:46:07;;;;;;;0.88;0.88;;;16.80;99.90;;;;;;5093564;28;20043;-62
2023/09/06 04:48:32;;;;;;;1.25;1.05;;;17.00;99.90;;;;;;5093197;28;20512;-62
2023/09/06 04:50:59;;;;;;;0.77;0.77;;;16.60;99.90;;;;;;5093189;28;20048;-62
2023/09/06 04:53:25;;;;;;;1.17;1.08;;;16.30;99.90;;;;;;5091856;28;20154;-62
2023/09/06 04:55:52;;;;;;;0.90;0.73;;;16.70;99.90;;;;;;5092870;28;20126;-62
2023/09/06 04:58:19;;;;;;;1.15;0.98;;;16.60;99.90;;;;;;5092968;28;20052;-61
2023/09/06 05:00:47;;;;;;;2.90;1.25;;;16.80;99.90;;;;;;5092977;28;20052;-62
2023/09/06 05:03:17;;;;;;;0.43;0.43;;;16.70;99.90;;;;;;5092952;28;20044;-62
2023/09/06 05:05:47;;;;;;;1.02;1.02;;;16.50;99.90;;;;;;5092589;28;20488;-62
2023/09/06 05:08:14;;;;;;;1.13;1.05;;;16.60;99.90;;;;;;5092770;28;20139;-62
2023/09/06 05:10:39;;;;;;;0.82;0.80;;;16.60;99.90;;;;;;5092708;28;20044;-62
2023/09/06 05:13:07;;;;;;;1.27;0.77;;;16.30;99.90;;;;;;5092733;28;20476;-62
2023/09/06 05:15:37;;;;;;;0.88;0.88;;;16.50;99.90;;;;;;5092755;28;20055;-62
2023/09/06 05:18:08;;;;;;;0.98;0.77;;;16.60;99.90;;;;;;5092646;28;20506;-63
2023/09/06 05:20:35;;;;;;;1.15;0.90;;;16.50;99.90;;;;;;5091538;28;20462;-62
2023/09/06 05:23:03;;;;;;;1.17;1.08;;;16.50;99.90;;;;;;5092568;28;20092;-62
2023/09/06 05:25:30;;;;;;;0.30;0.30;;;16.50;99.90;;;;;;5092408;28;20079;-62
2023/09/06 05:28:03;;;;;;;0.50;0.50;;;16.20;99.90;;;;;;5092482;28;20048;-62
2023/09/06 05:30:30;;;;;;;0.90;0.43;;;16.70;99.90;;;;;;5092555;28;20047;-62
2023/09/06 05:32:56;;;;;;;1.08;0.52;;;16.50;99.90;;;;;;5092442;28;20040;-62
2023/09/06 05:35:26;;;;;;;0.65;0.65;;;16.50;99.90;;;;;;5092453;28;20040;-62
2023/09/06 05:37:52;;;;;;;0.28;0.28;;;16.70;99.90;;;;;;5092472;28;20044;-62
2023/09/06 05:40:22;;;;;;;0.57;0.57;;;16.40;99.90;;;;;;5092736;28;20061;-62
2023/09/06 05:42:50;;;;;;;0.40;0.40;;;16.50;99.90;;;;;;5092671;28;20063;-62
2023/09/06 05:45:17;;;;;;;1.02;0.75;;;16.60;99.90;;;;;;5092211;28;20048;-62
2023/09/06 05:47:42;;;;;;;1.17;1.08;;;16.40;99.90;;;;;;5092216;28;20044;-62
2023/09/06 05:50:08;;;;;;;0.30;0.30;;;16.50;99.90;;;;;;5092380;28;20055;-62
2023/09/06 05:52:34;;;;;;;;;;;16.50;99.90;;;;;;5091206;28;20177;-62
2023/09/06 05:55:01;;;;;;;0.30;0.30;;;17.00;99.90;;;;;;5092092;28;20010;-62
2023/09/06 05:57:27;;;;;;;0.50;0.50;;;16.70;99.90;;;;;;5092043;28;20054;-62
2023/09/06 05:59:53;;;;;;;1.67;0.40;;;16.90;99.90;;;;;;5091948;28;20040;-62
2023/09/06 06:02:19;;;;;;;;;;;16.50;99.90;;;;;;5092413;28;20093;-62
2023/09/06 06:04:45;;;;;;;1.30;1.20;;;17.10;99.90;;;;;;5090450;28;20466;-62
2023/09/06 06:07:14;;;;;;;0.40;0.40;;;16.90;99.90;;;;;;5091342;28;20056;-62
2023/09/06 06:09:40;;;;;;;0.70;0.43;;;17.10;99.90;;;;;;5091896;28;20048;-62
2023/09/06 06:12:06;;;;;;;1.17;0.47;;;17.30;99.90;;;;;;5091877;28;20070;-62
2023/09/06 06:14:31;;;;;;;0.32;0.32;;;16.90;99.90;;;;;;5091526;28;20040;-63
2023/09/06 06:16:57;;;;;;;;;;;17.00;99.90;;;;;;5092214;28;20187;-62
2023/09/06 06:19:23;;;;;;;0.28;0.28;;;17.30;99.90;;;;;;5091753;28;20356;-62
2023/09/06 06:21:50;;;;;;;1.50;1.40;;;17.60;99.90;;;;;;5091747;28;20051;-62
2023/09/06 06:24:16;;;;;;;2.00;0.95;;;17.60;99.90;;;;;;5091594;28;20105;-62
2023/09/06 06:26:41;;;;;;;1.77;0.75;;;17.30;99.90;;;;;;5091643;28;20052;-62
2023/09/06 06:29:07;;;;;;;0.35;0.35;;;17.50;99.90;;;;;;5091590;28;20056;-63
2023/09/06 06:31:33;;;;;;;0.20;0.20;;;18.00;99.90;;;;;;5091296;28;20079;-62
2023/09/06 06:33:59;;;;;;;0.13;0.13;;;17.70;99.90;;;;;;5091601;28;20055;-62
2023/09/06 06:36:25;;;;;;;0.40;0.40;;;17.80;99.90;;;;;;5091650;28;20044;-63
2023/09/06 06:38:51;;;;;;;0.40;0.40;;;18.40;99.90;;;;;;5091869;28;20052;-63
2023/09/06 06:41:22;;;;;;;0.35;0.35;;;17.90;99.90;;;;;;5091840;28;20059;-62
2023/09/06 06:43:49;;;;;;;0.45;0.45;;;18.40;99.90;;;;;;5091562;28;20048;-62
2023/09/06 06:46:32;;;;;;;0.22;0.22;;;18.10;99.90;;;;;;5091530;28;20488;-62
2023/09/06 06:48:59;;;;;;;0.73;0.73;;;18.40;99.90;;;;;;5091514;28;20142;-62
2023/09/06 06:51:35;;;;;;;0.85;0.85;;;18.70;99.90;;;;;;5091401;28;20472;-62
2023/09/06 06:54:02;;;;;;;0.35;0.35;;;18.50;99.90;;;;;;5091489;28;20048;-62
2023/09/06 06:56:27;;;;;;;0.57;0.57;;;18.20;99.90;;;;;;5091061;28;20567;-62
2023/09/06 06:58:53;;;;;;;0.60;0.60;;;18.90;99.90;;;;;;5091400;28;20135;-62
2023/09/06 07:01:20;;;;;;;0.20;0.20;;;19.00;99.90;;;;;;5091331;28;20048;-64
2023/09/06 07:03:46;;;;;;;0.45;0.45;;;18.50;99.90;;;;;;5091249;28;20521;-62
2023/09/06 07:06:13;;;;;;;0.30;0.30;;;18.90;99.90;;;;;;5091269;28;20056;-63
2023/09/06 07:08:39;;;;;;;0.28;0.28;;;19.40;99.90;;;;;;5091244;28;20062;-62
2023/09/06 07:11:06;;;;;;;0.75;0.75;;;19.10;99.90;;;;;;5091313;28;20047;-62
2023/09/06 07:13:32;;;;;;;0.73;0.60;;;19.20;99.90;;;;;;5091204;28;20055;-62
2023/09/06 07:15:58;;;;;;;1.02;0.60;;;19.60;99.90;;;;;;5091182;28;20062;-63
2023/09/06 07:18:25;;;;;;;0.38;0.38;;;19.70;99.90;;;;;;5093347;28;20048;-62
2023/09/06 07:20:50;;;;;;;0.38;0.38;;;19.80;99.90;;;;;;5095042;28;20040;-62
2023/09/06 07:23:16;;;;;;;1.55;1.20;;;19.80;99.90;;;;;;5094936;28;20495;-62
2023/09/06 07:25:46;;;;;;;0.85;0.68;;;20.00;99.90;;;;;;5094522;28;20055;-62
2023/09/06 07:28:13;;;;;;;0.20;0.20;;;20.20;99.90;;;;;;5094816;28;20052;-63
2023/09/06 07:30:38;;;;;;;0.52;0.52;;;20.30;99.90;;;;;;5094757;28;20044;-62
2023/09/06 07:33:05;;;;;;;1.48;0.85;;;20.10;99.90;;;;;;5093710;28;20586;-63
2023/09/06 07:35:30;;;;;;;0.32;0.32;;;20.60;99.90;;;;;;5094674;28;20047;-61
2023/09/06 07:37:56;;;;;;;0.28;0.28;;;20.70;99.90;;;;;;5094918;28;20040;-63
2023/09/06 07:40:22;;;;;;;0.20;0.20;;;20.90;99.90;;;;;;5094573;28;20051;-62
2023/09/06 07:42:49;;;;;;;0.35;0.35;;;21.10;99.90;;;;;;5094583;28;20055;-64
2023/09/06 07:45:14;;;;;;;0.10;0.10;;;21.00;99.90;;;;;;5094460;28;20052;-62
2023/09/06 07:47:40;;;;;;;0.35;0.35;;;21.20;99.90;;;;;;5094542;28;20452;-63
2023/09/06 07:50:09;;;;;;;0.40;0.40;;;21.40;99.90;;;;;;5094519;28;20043;-63
2023/09/06 07:52:35;;;;;;;0.20;0.20;;;21.70;99.90;;;;;;5094464;28;20066;-63
2023/09/06 07:55:00;;;;;;;0.40;0.40;;;21.50;99.90;;;;;;5094477;28;20055;-63
2023/09/06 07:57:26;;;;;;;3.28;0.40;;;21.50;99.90;;;;;;5094626;28;20040;-63
2023/09/06 07:59:52;;;;;;;0.32;0.32;;;21.70;99.90;;;;;;5094164;28;20089;-63
2023/09/06 08:02:17;;;;;;;1.65;0.50;;;21.60;99.90;;;;;;5093972;28;20138;-62
2023/09/06 08:04:43;;;;;;;0.45;0.40;;;21.90;99.90;;;;;;5093898;28;20068;-63
2023/09/06 08:07:09;;;;;;;0.17;0.17;;;21.80;99.90;;;;;;5094168;28;20112;-63
2023/09/06 08:09:35;;;;;;;1.10;0.47;;;21.90;99.90;;;;;;5094173;28;20108;-64
2023/09/06 08:12:02;;;;;;;0.20;0.20;;;22.00;99.90;;;;;;5093998;28;20127;-62
2023/09/06 08:14:30;;;;;;;0.43;0.43;;;22.20;99.90;;;;;;5093657;28;20406;-64
2023/09/06 08:16:55;;;;;;;0.15;0.15;;;22.30;99.90;;;;;;5094023;28;20400;-63
2023/09/06 08:19:21;;;;;;;0.38;0.30;;;22.40;99.90;;;;;;5093862;28;20055;-64
2023/09/06 08:21:47;;;;;;;1.25;0.52;;;22.40;99.90;;;;;;5093890;28;20044;-64
2023/09/06 08:24:17;;;;;;;1.45;0.47;;;22.40;99.90;;;;;;5093793;28;20051;-63
2023/09/06 08:26:42;;;;;;;0.85;0.60;;;22.80;99.90;;;;;;5093836;28;20051;-64
2023/09/06 08:29:08;;;;;;;0.32;0.32;;;22.80;99.90;;;;;;5093138;28;20054;-64
2023/09/06 08:31:34;;;;;;;0.25;0.25;;;22.50;99.90;;;;;;5093820;28;20056;-63
2023/09/06 08:34:00;;;;;;;0.30;0.30;;;23.20;99.90;;;;;;5093786;28;20043;-62
2023/09/06 08:36:26;;;;;;;0.32;0.32;;;22.90;99.90;;;;;;5093917;28;20044;-62
2023/09/06 08:38:52;;;;;;;0.28;0.28;;;23.40;99.90;;;;;;5093605;28;20048;-63
2023/09/06 08:41:20;;;;;;;0.20;0.20;;;23.20;99.90;;;;;;5093280;28;20043;-63
2023/09/06 08:43:46;;;;;;;1.08;0.57;;;23.30;99.90;;;;;;5093414;28;20051;-63
2023/09/06 08:46:29;;;;;;;0.22;0.22;;;23.50;99.90;;;;;;5093395;28;20109;-63
2023/09/06 08:48:57;;;;;;;0.20;0.20;;;23.80;99.90;;;;;;5093398;28;20052;-63
2023/09/06 08:51:25;;;;;;;0.30;0.30;;;23.70;99.90;;;;;;5092010;28;20048;-63
2023/09/06 08:53:52;;;;;;;0.43;0.40;;;23.80;99.90;;;;;;5093289;28;20050;-63
2023/09/06 08:56:19;;;;;;;0.52;0.52;;;23.80;99.90;;;;;;5093118;28;20051;-62
2023/09/06 08:58:44;;;;;;;0.20;0.20;;;24.00;99.90;;;;;;5093202;28;20052;-62
2023/09/06 09:01:10;;;;;;;2.28;0.22;;;24.20;99.90;;;;;;5093381;28;20051;-63
2023/09/06 09:03:36;;;;;;;0.47;0.47;;;24.10;99.90;;;;;;5093111;28;20126;-63
2023/09/06 09:06:08;;;;;;;0.20;0.20;;;23.80;99.90;;;;;;5093002;28;20058;-63
2023/09/06 09:08:35;;;;;;;0.10;0.10;;;24.50;99.90;;;;;;5093282;28;20055;-64
2023/09/06 09:11:13;;;;;;;0.52;0.30;;;24.40;99.90;;;;;;5092986;28;20094;-62
2023/09/06 09:13:43;;;;;;;0.22;0.20;;;24.50;99.90;;;;;;5092885;28;20040;-62
2023/09/06 09:16:10;;;;;;;0.15;0.10;;;24.60;99.90;;;;;;5092846;28;20056;-64
2023/09/06 09:18:38;;;;;;;0.28;0.28;;;24.40;99.90;;;;;;5091678;28;20453;-63
2023/09/06 09:21:04;;;;;;;0.20;0.20;;;24.70;99.90;;;;;;5092751;28;20118;-64
2023/09/06 09:23:31;;;;;;;0.30;0.30;;;24.80;99.90;;;;;;5092835;28;20051;-63
2023/09/06 09:25:57;;;;;;;0.30;0.30;;;24.90;99.90;;;;;;5092562;28;20044;-63
2023/09/06 09:28:24;;;;;;;0.15;0.15;;;24.80;99.90;;;;;;5092507;28;20093;-63
2023/09/06 09:30:51;;;;;;;0.32;0.22;;;25.20;99.90;;;;;;5092493;28;20052;-64
2023/09/06 09:33:18;;;;;;;0.35;0.35;;;25.20;99.90;;;;;;5092421;28;20043;-63
2023/09/06 09:35:44;;;;;;;0.30;0.20;;;25.50;99.90;;;;;;5092394;28;20122;-63
2023/09/06 09:38:13;;;;;;;0.30;0.30;;;25.40;99.90;;;;;;5092315;28;20101;-63
2023/09/06 09:40:39;;;;;;;0.20;0.20;;;25.50;99.90;;;;;;5091797;28;20044;-63
2023/09/06 09:43:05;;;;;;;0.30;0.30;;;25.40;99.90;;;;;;5091867;28;20128;-65
2023/09/06 09:45:43;;;;;;;0.52;0.52;;;25.80;99.90;;;;;;5091881;28;20047;-62
2023/09/06 09:48:09;;;;;;;0.20;0.20;;;25.80;99.90;;;;;;5092316;28;20465;-63
2023/09/06 09:50:38;;;;;;;0.75;0.75;;;25.70;99.90;;;;;;5092112;28;20055;-64
2023/09/06 09:53:10;;;;;;;0.30;0.30;;;25.60;99.90;;;;;;5092119;28;20044;-61
2023/09/06 09:55:45;;;;;;;0.40;0.40;;;26.00;99.90;;;;;;5092143;28;20086;-65
2023/09/06 09:58:12;;;;;;;0.25;0.25;;;26.10;99.90;;;;;;5092087;28;20523;-62
2023/09/06 10:00:41;;;;;;;0.57;0.57;;;26.00;99.90;;;;;;5091970;28;20044;-63
2023/09/06 10:03:08;;;;;;;0.50;0.50;;;26.10;99.90;;;;;;5091579;28;20499;-62
2023/09/06 10:05:35;;;;;;;0.20;0.20;;;26.40;99.90;;;;;;5091472;28;20071;-64
2023/09/06 10:08:04;;;;;;;0.13;0.13;;;26.40;99.90;;;;;;5092151;28;20112;-64
2023/09/06 10:10:32;;;;;;;0.13;0.13;;;26.50;99.90;;;;;;5091882;28;20147;-63
2023/09/06 10:13:04;;;;;;;0.20;0.20;;;26.40;99.90;;;;;;5091837;28;20060;-63
2023/09/06 10:15:32;;;;;;;0.75;0.75;;;26.80;99.90;;;;;;5091511;28;20518;-62
2023/09/06 10:17:58;;;;;;;0.57;0.57;;;26.90;99.90;;;;;;5091748;28;20180;-63
2023/09/06 10:20:26;;;;;;;0.60;0.57;;;26.40;99.90;;;;;;5091825;28;20063;-64
2023/09/06 10:22:56;;;;;;;0.30;0.30;;;26.90;99.90;;;;;;5091742;28;20052;-63
2023/09/06 10:25:22;;;;;;;0.30;0.22;;;27.10;99.90;;;;;;5091589;28;20488;-63
2023/09/06 10:27:57;;;;;;;0.10;0.10;;;26.90;99.90;;;;;;5091732;28;20044;-63
2023/09/06 10:30:40;;;;;;;0.45;0.43;;;27.20;99.90;;;;;;5091941;28;20051;-63
2023/09/06 10:33:08;;;;;;;0.20;0.20;;;27.10;99.90;;;;;;5092069;28;20137;-61
2023/09/06 10:35:41;;;;;;;0.20;0.20;;;27.10;99.90;;;;;;5091636;28;20044;-63
2023/09/06 10:38:19;;;;;;;0.30;0.30;;;27.20;99.90;;;;;;5091707;28;20066;-64
2023/09/06 10:40:47;;;;;;;0.10;0.10;;;27.40;99.90;;;;;;5091646;28;20043;-64
2023/09/06 10:43:13;;;;;;;0.57;0.50;;;27.60;99.90;;;;;;5091588;28;20158;-63
2023/09/06 10:45:40;;;;;;;0.32;0.32;;;27.80;99.90;;;;;;5091511;28;20529;-63
2023/09/06 10:48:12;;;;;;;0.20;0.20;;;27.70;99.90;;;;;;5091208;28;20500;-63
2023/09/06 10:50:37;;;;;;;1.17;1.08;;;27.60;99.90;;;;;;5091473;28;20381;-63
2023/09/06 10:53:04;;;;;;;0.10;0.10;;;28.10;99.90;;;;;;5093256;28;20074;-63
2023/09/06 10:55:43;;;;;;;0.17;0.17;;;27.90;99.90;;;;;;5095452;28;20083;-63
2023/09/06 10:58:10;;;;;;;1.38;0.55;;;27.90;99.90;;;;;;5095483;28;20050;-63
2023/09/06 11:00:36;;;;;;;0.85;0.38;;;28.30;99.90;;;;;;5095393;28;20122;-63
2023/09/06 11:03:09;;;;;;;0.45;0.45;;;28.20;99.90;;;;;;5095269;28;20456;-62
2023/09/06 11:05:43;;;;;;;0.10;0.10;;;28.00;99.90;;;;;;5095200;28;20064;-62
2023/09/06 11:08:21;;;;;;;0.20;0.20;;;28.30;99.90;;;;;;5095354;28;20095;-62
2023/09/06 11:10:47;;;;;;;0.25;0.25;;;28.30;99.90;;;;;;5095272;28;20048;-63
2023/09/06 11:13:15;;;;;;;0.20;0.20;;;28.50;99.90;;;;;;5095388;28;20048;-61
2023/09/06 11:15:41;;;;;;;0.10;0.10;;;28.10;99.90;;;;;;5095062;28;20051;-63
2023/09/06 11:18:08;;;;;;;0.30;0.30;;;28.80;99.90;;;;;;5095076;28;20126;-62
2023/09/06 11:20:35;;;;;;;0.20;0.20;;;28.60;99.90;;;;;;5094958;28;20499;-62
2023/09/06 11:23:02;;;;;;;0.10;0.10;;;28.50;99.90;;;;;;5094923;28;20040;-63
2023/09/06 11:25:31;;;;;;;0.30;0.30;;;28.90;99.90;;;;;;5094795;28;20044;-62
2023/09/06 11:28:13;;;;;;;0.25;0.25;;;28.60;99.90;;;;;;5094859;28;20050;-62
2023/09/06 11:30:39;;;;;;;0.30;0.30;;;28.90;99.90;;;;;;5094889;28;20088;-63
2023/09/06 11:33:11;;;;;;;0.30;0.30;;;29.30;99.90;;;;;;5094810;28;20047;-62
2023/09/06 11:35:40;;;;;;;0.13;0.13;;;29.10;99.90;;;;;;5094824;28;20044;-62
2023/09/06 11:38:14;;;;;;;0.25;0.20;;;29.30;99.90;;;;;;5094646;28;20052;-62
2023/09/06 11:40:41;;;;;;;0.20;0.20;;;29.50;99.90;;;;;;5094720;28;20040;-62
2023/09/06 11:43:10;;;;;;;0.10;0.10;;;29.50;99.90;;;;;;5094590;28;20556;-62
2023/09/06 11:45:37;;;;;;;0.10;0.10;;;29.40;99.90;;;;;;5094393;28;20044;-62
2023/09/06 11:48:08;;;;;;;0.10;0.10;;;29.80;99.90;;;;;;5094206;28;20485;-62
2023/09/06 11:50:40;;;;;;;0.10;0.10;;;29.40;99.90;;;;;;5094472;28;20130;-62
2023/09/06 11:53:09;;;;;;;0.00;0.00;;;30.00;99.90;;;;;;5094064;28;20519;-62
2023/09/06 11:55:39;;;;;;;0.10;0.10;;;29.50;99.90;;;;;;5094327;28;20147;-63
2023/09/06 11:58:14;;;;;;;0.20;0.20;;;29.70;99.90;;;;;;5094340;28;20447;-62
2023/09/06 12:00:45;;;;;;;0.35;0.35;;;29.70;99.90;;;;;;5094359;28;20088;-62
2023/09/06 12:03:19;;;;;;;0.22;0.22;;;29.80;99.90;;;;;;5094293;28;20113;-62
2023/09/06 12:05:46;;;;;;;0.10;0.10;;;29.70;99.90;;;;;;5093166;28;20124;-62
2023/09/06 12:08:17;;;;;;;0.45;0.45;;;29.80;99.90;;;;;;5094207;28;20048;-62
2023/09/06 12:10:52;;;;;;;0.32;0.32;;;30.00;99.90;;;;;;5094154;28;20044;-62
2023/09/06 12:13:31;;;;;;;0.20;0.20;;;29.90;99.90;;;;;;5094252;28;20083;-61
2023/09/06 12:15:58;;;;;;;0.10;0.10;;;30.00;99.90;;;;;;5094160;28;20137;-62
2023/09/06 12:18:28;;;;;;;0.17;0.15;;;30.10;99.90;;;;;;5094015;28;20127;-62
2023/09/06 12:20:54;;;;;;;0.15;0.15;;;30.30;99.90;;;;;;5094150;28;20079;-62
2023/09/06 12:23:20;;;;;;;0.65;0.55;;;30.00;99.90;;;;;;5094327;28;20113;-62
2023/09/06 12:25:47;;;;;;;0.40;0.28;;;30.30;99.90;;;;;;5094240;28;20048;-63
2023/09/06 12:28:13;;;;;;;0.10;0.10;;;30.20;99.90;;;;;;5094142;28;20055;-62
2023/09/06 12:30:39;;;;;;;1.23;0.50;;;30.00;99.90;;;;;;5093801;28;20429;-62
2023/09/06 12:33:04;;;;;;;0.85;0.30;;;30.30;99.90;;;;;;5093790;28;20042;-62
2023/09/06 12:35:37;;;;;;;0.35;0.30;;;30.30;99.90;;;;;;5092681;28;20131;-62
2023/09/06 12:38:03;;;;;;;0.70;0.40;;;29.90;99.90;;;;;;5093700;28;20044;-62
2023/09/06 12:40:31;;;;;;;0.52;0.30;;;30.40;99.90;;;;;;5093482;28;20044;-62
2023/09/06 12:42:57;;;;;;;0.10;0.10;;;30.40;99.90;;;;;;5093520;28;20052;-63
2023/09/06 12:45:30;;;;;;;0.00;0.00;;;30.40;99.90;;;;;;5093352;28;20116;-62
2023/09/06 12:48:00;;;;;;;0.28;0.28;;;30.40;99.90;;;;;;5093483;28;20051;-62
2023/09/06 12:50:27;;;;;;;0.00;0.00;;;30.60;99.90;;;;;;5093430;28;20059;-63